Time;durP1;ratioP1;P1;durP2;ratioP2;P2;SDS_P1;SDS_P2;PMS_P1;PMS_P2;Temp;Humidity;BMP_temperature;BMP_pressure;BME280_temperature;BME280_humidity;BME280_pressure;Samples;Min_cycle;Max_cycle;Signal;HPM_P1;HPM_P2
2023/07/06 00:02:15;;;;;;;2.60;2.10;;;16.80;91.10;;;;;;5051390;28;20021;-64
2023/07/06 00:04:40;;;;;;;3.13;2.00;;;16.80;90.90;;;;;;5050138;28;20028;-64
2023/07/06 00:07:06;;;;;;;4.18;2.10;;;16.80;91.10;;;;;;5051337;28;20071;-65
2023/07/06 00:09:35;;;;;;;2.92;1.88;;;16.80;91.20;;;;;;5050236;28;20032;-65
2023/07/06 00:12:01;;;;;;;6.37;2.10;;;16.90;91.30;;;;;;5051296;28;20029;-64
2023/07/06 00:14:27;;;;;;;3.55;2.10;;;16.80;91.20;;;;;;5049899;28;20018;-65
2023/07/06 00:17:09;;;;;;;3.17;2.03;;;16.90;91.30;;;;;;5059042;28;20056;-64
2023/07/06 00:19:34;;;;;;;5.72;1.90;;;16.80;91.30;;;;;;5050298;28;20021;-65
2023/07/06 00:22:00;;;;;;;3.63;2.15;;;16.80;91.50;;;;;;5033236;28;20027;-64
2023/07/06 00:24:26;;;;;;;3.08;1.75;;;16.80;92.00;;;;;;5047438;28;20075;-65
2023/07/06 00:26:51;;;;;;;4.88;2.13;;;16.70;92.20;;;;;;5055460;28;20473;-64
2023/07/06 00:29:17;;;;;;;2.85;1.75;;;16.60;92.10;;;;;;5054848;28;20021;-65
2023/07/06 00:31:51;;;;;;;4.07;2.00;;;16.50;92.20;;;;;;5054024;28;20089;-64
2023/07/06 00:34:19;;;;;;;4.45;2.35;;;16.40;92.20;;;;;;5054897;28;20020;-64
2023/07/06 00:36:48;;;;;;;4.13;2.05;;;16.30;92.30;;;;;;5054510;28;20048;-65
2023/07/06 00:39:13;;;;;;;3.88;2.20;;;16.20;92.50;;;;;;5053639;28;20111;-64
2023/07/06 00:41:40;;;;;;;4.03;2.45;;;16.20;92.60;;;;;;5055148;28;20104;-64
2023/07/06 00:44:05;;;;;;;2.88;1.90;;;16.10;92.80;;;;;;5063040;28;20362;-64
2023/07/06 00:46:39;;;;;;;3.08;2.03;;;16.10;93.10;;;;;;5054863;28;20025;-64
2023/07/06 00:49:13;;;;;;;3.60;2.28;;;16.00;93.20;;;;;;5034405;28;20045;-64
2023/07/06 00:51:40;;;;;;;3.28;1.80;;;16.00;93.30;;;;;;5034411;28;20032;-64
2023/07/06 00:54:16;;;;;;;2.63;1.70;;;16.00;93.60;;;;;;5033943;28;20025;-65
2023/07/06 00:56:46;;;;;;;3.13;2.15;;;16.00;93.90;;;;;;5034313;28;20021;-64
2023/07/06 00:59:16;;;;;;;4.95;2.10;;;16.00;94.00;;;;;;5034457;28;20474;-64
2023/07/06 01:01:44;;;;;;;2.97;2.15;;;16.00;94.10;;;;;;5037340;28;20045;-64
2023/07/06 01:04:13;;;;;;;3.47;1.95;;;16.00;94.20;;;;;;5036841;28;20022;-65
2023/07/06 01:06:50;;;;;;;3.05;1.75;;;16.00;94.10;;;;;;5033755;28;20029;-65
2023/07/06 01:09:20;;;;;;;2.67;2.00;;;16.00;94.10;;;;;;5033908;28;20430;-64
2023/07/06 01:11:46;;;;;;;3.28;1.90;;;16.00;94.50;;;;;;5033867;28;20463;-64
2023/07/06 01:14:13;;;;;;;2.95;1.98;;;16.00;94.80;;;;;;5031782;28;20025;-64
2023/07/06 01:16:53;;;;;;;3.25;1.90;;;15.90;95.00;;;;;;5033538;28;20804;-64
2023/07/06 01:19:33;;;;;;;2.92;2.03;;;;;;;;;;5034085;28;20035;-65
2023/07/06 01:21:59;;;;;;;;;;;;;;;;;;5034462;28;20092;-65
2023/07/06 01:24:34;;;;;;;3.28;2.20;;;;;;;;;;5033061;28;19972;-65
2023/07/06 01:27:00;;;;;;;2.53;1.90;;;;;;;;;;5034311;28;20020;-65
2023/07/06 01:29:45;;;;;;;4.80;1.80;;;;;;;;;;5033176;28;20029;-65
2023/07/06 01:32:21;;;;;;;4.25;2.00;;;;;;;;;;5034260;28;20030;-64
2023/07/06 01:35:01;;;;;;;2.55;1.80;;;;;;;;;;5033742;28;20045;-65
2023/07/06 01:37:30;;;;;;;7.05;1.92;;;;;;;;;;5032960;28;20026;-65
2023/07/06 01:39:59;;;;;;;6.63;2.00;;;;;;;;;;5032719;28;20344;-65
2023/07/06 01:42:28;;;;;;;2.92;2.20;;;;;;;;;;5031425;28;20052;-65
2023/07/06 01:44:57;;;;;;;2.95;1.83;;;;;;;;;;5044723;28;20037;-64
2023/07/06 01:47:25;;;;;;;2.00;1.42;;;;;;;;;;5039222;28;20119;-65
2023/07/06 01:49:51;;;;;;;4.35;2.15;;;;;;;;;;5053061;28;20053;-65
2023/07/06 01:52:18;;;;;;;4.53;2.30;;;;;;;;;;5054030;28;20017;-65
2023/07/06 01:55:02;;;;;;;2.75;2.17;;;;;;;;;;5052306;28;20171;-65
2023/07/06 01:57:32;;;;;;;4.13;2.20;;;;;;;;;;5052996;28;20024;-65
2023/07/06 02:00:00;;;;;;;3.67;1.88;;;;;;;;;;5050694;28;20416;-65
2023/07/06 02:02:30;;;;;;;2.88;2.03;;;;;;;;;;5051656;28;20513;-65
2023/07/06 02:04:56;;;;;;;4.43;2.63;;;;;;;;;;5053283;28;20096;-65
2023/07/06 02:07:22;;;;;;;3.90;2.10;;;;;;;;;;5053139;28;20013;-65
2023/07/06 02:09:54;;;;;;;3.05;2.10;;;;;;;;;;5052399;28;20497;-65
2023/07/06 02:12:20;;;;;;;5.25;2.20;;;;;;;;;;5053345;28;20477;-65
2023/07/06 02:14:48;;;;;;;3.28;2.05;;;;;;;;;;5056066;28;20082;-65
2023/07/06 02:17:15;;;;;;;3.88;1.92;;;;;;;;;;5055644;28;20048;-64
2023/07/06 02:19:41;;;;;;;5.60;2.35;;;;;;;;;;5051895;28;20021;-65
2023/07/06 02:22:08;;;;;;;5.15;2.08;;;;;;;;;;5053077;28;20025;-65
2023/07/06 02:24:34;;;;;;;3.70;2.20;;;;;;;;;;5051852;28;20533;-65
2023/07/06 02:27:00;;;;;;;3.35;2.50;;;;;;;;;;5052674;28;20013;-65
2023/07/06 02:29:26;;;;;;;4.75;2.00;;;;;;;;;;5051946;28;20033;-65
2023/07/06 02:31:53;;;;;;;2.47;1.90;;;;;;;;;;5054441;28;20468;-65
2023/07/06 02:34:24;;;;;;;2.03;1.75;;;;;;;;;;5052361;28;20021;-65
2023/07/06 02:36:51;;;;;;;3.30;2.10;;;;;;;;;;5052932;28;20028;-64
2023/07/06 02:39:17;;;;;;;3.20;2.30;;;14.60;99.90;;;;;;5052347;28;20029;-65
2023/07/06 02:41:42;;;;;;;3.17;2.22;;;14.60;99.90;;;;;;5051776;28;20290;-65
2023/07/06 02:44:08;;;;;;;2.65;2.05;;;14.50;99.90;;;;;;5061564;28;20477;-64
2023/07/06 02:46:34;;;;;;;2.63;1.98;;;14.30;99.90;;;;;;5052324;28;20413;-65
2023/07/06 02:48:59;;;;;;;1.65;1.45;;;14.30;99.90;;;;;;5050613;28;20103;-65
2023/07/06 02:51:25;;;;;;;4.18;1.85;;;14.20;99.90;;;;;;5052061;28;20021;-65
2023/07/06 02:53:50;;;;;;;3.38;2.25;;;14.20;99.90;;;;;;5052387;28;20021;-64
2023/07/06 02:56:16;;;;;;;4.32;1.80;;;14.10;99.90;;;;;;5052048;28;20454;-64
2023/07/06 02:58:42;;;;;;;3.70;2.20;;;14.10;99.90;;;;;;5051348;28;20053;-64
2023/07/06 03:01:08;;;;;;;4.55;2.20;;;14.10;99.90;;;;;;5051827;28;20054;-64
2023/07/06 03:03:34;;;;;;;3.80;2.40;;;14.00;99.90;;;;;;5041129;28;20025;-64
2023/07/06 03:06:01;;;;;;;3.15;1.83;;;14.10;99.90;;;;;;5051798;28;20524;-64
2023/07/06 03:08:27;;;;;;;4.57;2.78;;;14.10;99.90;;;;;;5050959;28;20040;-65
2023/07/06 03:10:53;;;;;;;3.08;2.10;;;14.10;99.90;;;;;;5052085;28;20021;-64
2023/07/06 03:13:18;;;;;;;5.00;2.15;;;14.20;99.90;;;;;;5049635;28;20021;-65
2023/07/06 03:15:50;;;;;;;2.70;2.05;;;14.10;99.90;;;;;;5059447;28;20397;-64
2023/07/06 03:18:18;;;;;;;2.50;1.90;;;14.10;99.90;;;;;;5052209;28;20533;-64
2023/07/06 03:20:48;;;;;;;4.40;2.30;;;14.10;99.90;;;;;;5050739;28;20036;-65
2023/07/06 03:23:13;;;;;;;4.40;2.13;;;14.00;99.90;;;;;;5052133;28;20025;-64
2023/07/06 03:25:39;;;;;;;3.55;2.20;;;14.00;99.90;;;;;;5037155;28;20082;-65
2023/07/06 03:28:04;;;;;;;3.03;2.08;;;13.90;99.90;;;;;;5051851;28;20028;-64
2023/07/06 03:30:30;;;;;;;3.90;2.28;;;13.90;99.90;;;;;;5051307;28;20028;-64
2023/07/06 03:32:59;;;;;;;5.32;2.13;;;13.80;99.90;;;;;;5058894;28;20450;-64
2023/07/06 03:35:25;;;;;;;4.47;2.00;;;13.80;99.90;;;;;;5050441;28;20036;-64
2023/07/06 03:37:58;;;;;;;4.10;2.20;;;13.80;99.90;;;;;;5051784;28;20044;-65
2023/07/06 03:40:29;;;;;;;3.17;2.00;;;13.90;99.90;;;;;;5050676;28;20036;-65
2023/07/06 03:42:56;;;;;;;2.92;2.10;;;13.80;99.90;;;;;;5049692;28;20039;-66
2023/07/06 03:45:22;;;;;;;2.60;1.63;;;13.80;99.90;;;;;;5061147;28;20025;-66
2023/07/06 03:47:49;;;;;;;3.17;1.98;;;13.80;99.90;;;;;;5050988;28;20049;-65
2023/07/06 03:50:17;;;;;;;2.97;1.75;;;13.70;99.90;;;;;;5048898;28;20029;-65
2023/07/06 03:52:44;;;;;;;2.05;1.70;;;13.70;99.90;;;;;;5051761;28;20056;-65
2023/07/06 03:55:17;;;;;;;2.10;1.63;;;13.60;99.90;;;;;;5051481;28;20458;-64
2023/07/06 03:57:45;;;;;;;3.03;1.90;;;13.60;99.90;;;;;;5050433;28;20552;-64
2023/07/06 04:00:22;;;;;;;3.05;2.00;;;13.50;99.90;;;;;;5051088;28;20040;-64
2023/07/06 04:02:55;;;;;;;2.45;1.92;;;13.50;99.90;;;;;;5051498;28;20054;-65
2023/07/06 04:05:24;;;;;;;3.58;2.15;;;13.60;99.90;;;;;;5032633;28;20358;-65
2023/07/06 04:07:52;;;;;;;3.42;2.15;;;13.60;99.90;;;;;;5048702;28;20450;-65
2023/07/06 04:10:22;;;;;;;2.45;1.73;;;13.70;99.90;;;;;;5051492;28;20411;-65
2023/07/06 04:12:48;;;;;;;3.63;1.93;;;13.70;99.90;;;;;;5051221;28;20025;-64
2023/07/06 04:15:17;;;;;;;4.28;2.03;;;13.80;99.90;;;;;;5048256;28;20033;-64
2023/07/06 04:17:44;;;;;;;3.65;2.17;;;13.80;99.90;;;;;;5050573;28;20411;-64
2023/07/06 04:20:19;;;;;;;3.95;2.25;;;13.80;99.90;;;;;;5050952;28;20029;-65
2023/07/06 04:22:48;;;;;;;3.50;1.80;;;13.80;99.90;;;;;;5050550;28;20027;-66
2023/07/06 04:25:18;;;;;;;2.42;1.67;;;13.90;99.90;;;;;;5046193;28;20381;-64
2023/07/06 04:27:44;;;;;;;;;;;14.00;99.90;;;;;;5047244;28;20017;-64
2023/07/06 04:30:14;;;;;;;6.28;2.30;;;14.00;99.90;;;;;;5024336;28;19932;-65
2023/07/06 04:32:42;;;;;;;3.90;2.25;;;14.10;99.90;;;;;;5048878;28;20027;-69
2023/07/06 04:35:11;;;;;;;3.45;1.88;;;14.10;99.90;;;;;;5050498;28;20017;-64
2023/07/06 04:37:37;;;;;;;4.30;2.23;;;14.20;99.90;;;;;;5050032;28;20462;-65
2023/07/06 04:40:12;;;;;;;4.03;2.10;;;14.20;99.90;;;;;;5050072;28;20577;-65
2023/07/06 04:42:40;;;;;;;3.75;2.42;;;14.30;99.90;;;;;;5047214;28;20025;-65
2023/07/06 04:45:08;;;;;;;3.28;2.33;;;14.40;99.90;;;;;;5051468;28;20028;-65
2023/07/06 04:47:34;;;;;;;6.80;2.05;;;14.50;99.90;;;;;;5044510;28;20429;-65
2023/07/06 04:49:59;;;;;;;2.92;2.03;;;14.60;99.90;;;;;;5039084;28;20133;-65
2023/07/06 04:52:25;;;;;;;4.50;2.50;;;14.70;99.90;;;;;;5045668;28;20024;-65
2023/07/06 04:54:50;;;;;;;3.35;2.10;;;14.80;99.90;;;;;;5045514;28;20106;-65
2023/07/06 04:57:16;;;;;;;3.25;2.08;;;14.80;99.90;;;;;;5043080;28;20018;-65
2023/07/06 04:59:43;;;;;;;2.53;2.10;;;14.90;99.90;;;;;;5039762;28;20147;-66
2023/07/06 05:02:10;;;;;;;5.72;2.40;;;15.00;99.90;;;;;;5029807;28;20028;-65
2023/07/06 05:04:40;;;;;;;4.15;2.13;;;15.10;99.90;;;;;;5034707;28;20462;-65
2023/07/06 05:07:06;;;;;;;;;;;15.20;99.90;;;;;;5038287;28;20017;-65
2023/07/06 05:09:32;;;;;;;3.15;2.20;;;15.30;99.90;;;;;;5044043;28;19909;-65
2023/07/06 05:11:58;;;;;;;3.65;1.90;;;15.40;99.90;;;;;;5034152;28;20040;-65
2023/07/06 05:14:24;;;;;;;4.88;2.35;;;15.50;99.90;;;;;;5030053;28;20028;-66
2023/07/06 05:16:50;;;;;;;4.93;2.55;;;15.60;99.90;;;;;;5048525;28;20025;-65
2023/07/06 05:19:16;;;;;;;3.30;2.00;;;15.70;99.90;;;;;;5049797;28;20071;-65
2023/07/06 05:21:41;;;;;;;5.05;2.53;;;15.80;99.90;;;;;;5045853;28;20096;-65
2023/07/06 05:24:08;;;;;;;3.03;2.20;;;15.90;99.90;;;;;;5041279;28;20025;-65
2023/07/06 05:26:33;;;;;;;3.05;2.30;;;16.00;99.90;;;;;;5033619;28;20601;-65
2023/07/06 05:28:59;;;;;;;4.15;1.95;;;16.10;99.90;;;;;;5033899;28;20078;-65
2023/07/06 05:31:26;;;;;;;5.97;3.00;;;16.20;99.90;;;;;;5027891;28;20030;-66
2023/07/06 05:33:52;;;;;;;3.97;3.03;;;16.40;99.90;;;;;;5036936;28;20029;-65
2023/07/06 05:36:17;;;;;;;7.57;3.15;;;16.60;99.90;;;;;;5038553;28;20036;-65
2023/07/06 05:38:43;;;;;;;7.50;3.45;;;16.70;99.90;;;;;;5026760;28;20068;-65
2023/07/06 05:41:09;;;;;;;4.45;2.75;;;16.80;99.90;;;;;;5028306;28;20057;-66
2023/07/06 05:43:34;;;;;;;6.43;3.10;;;16.80;99.90;;;;;;5033567;28;20470;-77
2023/07/06 05:46:00;;;;;;;6.60;3.15;;;16.80;99.90;;;;;;5033074;28;20064;-72
2023/07/06 05:48:25;;;;;;;5.45;3.10;;;16.90;99.90;;;;;;5045425;28;20553;-74
2023/07/06 05:50:51;;;;;;;8.25;3.53;;;16.90;99.90;;;;;;5052595;28;20040;-71
2023/07/06 05:53:16;;;;;;;7.00;3.00;;;17.00;99.90;;;;;;5055895;28;20028;-76
2023/07/06 05:55:43;;;;;;;4.55;3.17;;;17.10;99.90;;;;;;5033734;28;20059;-74
2023/07/06 05:58:10;;;;;;;8.45;3.33;;;17.10;99.90;;;;;;5048765;28;20036;-76
2023/07/06 06:00:39;;;;;;;6.50;3.47;;;17.20;99.90;;;;;;5053503;28;20025;-74
2023/07/06 06:03:05;;;;;;;6.60;3.78;;;17.30;99.90;;;;;;5049001;28;20085;-75
2023/07/06 06:05:33;;;;;;;5.95;3.25;;;17.30;99.90;;;;;;5049856;28;20347;-74
2023/07/06 06:08:00;;;;;;;7.22;3.72;;;17.40;99.90;;;;;;5057207;28;20111;-75
2023/07/06 06:10:26;;;;;;;8.98;3.92;;;17.40;99.90;;;;;;5052535;28;20032;-75
2023/07/06 06:12:52;;;;;;;13.57;4.13;;;17.50;99.90;;;;;;5053689;28;20366;-75
2023/07/06 06:15:17;;;;;;;7.63;3.40;;;17.60;99.90;;;;;;5052556;28;20519;-74
2023/07/06 06:17:44;;;;;;;6.03;3.10;;;17.70;99.90;;;;;;5052887;28;20029;-74
2023/07/06 06:20:10;;;;;;;7.22;3.42;;;17.80;99.90;;;;;;5049444;28;20104;-74
2023/07/06 06:22:37;;;;;;;8.43;3.53;;;17.80;99.90;;;;;;5052456;28;20472;-75
2023/07/06 06:25:03;;;;;;;7.85;3.63;;;17.90;99.90;;;;;;5052955;28;20025;-75
2023/07/06 06:27:29;;;;;;;6.15;3.10;;;18.00;99.90;;;;;;5053067;28;20520;-75
2023/07/06 06:29:55;;;;;;;8.30;3.13;;;18.10;99.90;;;;;;5053156;28;20454;-74
2023/07/06 06:32:22;;;;;;;4.93;3.30;;;18.20;99.90;;;;;;5052730;28;20091;-83
2023/07/06 06:34:47;;;;;;;8.55;3.20;;;18.30;99.90;;;;;;5052879;28;20028;-75
2023/07/06 06:37:16;;;;;;;5.95;2.72;;;18.40;99.90;;;;;;5055035;28;20021;-74
2023/07/06 06:39:43;;;;;;;4.53;2.97;;;18.50;99.90;;;;;;5055840;28;20492;-75
2023/07/06 06:42:09;;;;;;;4.10;2.60;;;18.50;99.90;;;;;;5053024;28;20082;-77
2023/07/06 06:44:35;;;;;;;5.05;2.88;;;18.70;99.90;;;;;;5054797;28;20021;-74
2023/07/06 06:47:04;;;;;;;10.77;3.92;;;18.80;99.90;;;;;;5061425;28;20088;-76
2023/07/06 06:49:30;;;;;;;5.72;3.65;;;18.90;99.90;;;;;;5055676;28;20033;-75
2023/07/06 06:51:56;;;;;;;7.85;3.42;;;18.90;99.90;;;;;;5048127;28;20032;-76
2023/07/06 06:54:21;;;;;;;7.65;3.38;;;19.00;99.90;;;;;;5040162;28;20378;-86
2023/07/06 06:56:47;;;;;;;10.65;2.90;;;19.10;99.90;;;;;;5054095;28;20074;-73
2023/07/06 06:59:13;;;;;;;4.10;2.40;;;19.20;99.90;;;;;;5065199;28;20477;-73
2023/07/06 07:01:40;;;;;;;5.70;3.08;;;19.50;99.90;;;;;;5057679;28;20709;-75
2023/07/06 07:04:09;;;;;;;3.83;2.35;;;19.60;99.90;;;;;;5053928;28;20025;-76
2023/07/06 07:06:38;;;;;;;5.68;2.55;;;19.60;99.90;;;;;;5058014;28;20013;-75
2023/07/06 07:09:05;;;;;;;5.83;2.50;;;19.60;99.90;;;;;;5051936;28;20374;-76
2023/07/06 07:11:31;;;;;;;4.60;2.45;;;19.70;99.90;;;;;;5042450;28;20352;-73
2023/07/06 07:13:56;;;;;;;4.57;3.00;;;19.80;99.90;;;;;;5052013;28;20096;-73
2023/07/06 07:16:23;;;;;;;11.38;3.53;;;19.90;99.90;;;;;;5063322;28;20527;-82
2023/07/06 07:18:49;;;;;;;5.68;2.83;;;20.00;99.90;;;;;;5065058;28;20103;-74
2023/07/06 07:21:15;;;;;;;6.15;2.42;;;20.10;99.90;;;;;;5053708;28;20481;-73
2023/07/06 07:23:43;;;;;;;5.78;2.47;;;20.10;99.90;;;;;;5058282;28;20020;-75
2023/07/06 07:26:12;;;;;;;4.78;2.45;;;20.20;99.90;;;;;;5072909;28;20112;-73
2023/07/06 07:28:37;;;;;;;4.10;2.53;;;20.30;99.90;;;;;;5045507;28;20380;-74
2023/07/06 07:31:03;;;;;;;6.50;2.38;;;20.40;99.90;;;;;;5054961;28;20096;-76
2023/07/06 07:33:29;;;;;;;8.40;2.38;;;20.50;99.90;;;;;;5065734;28;20017;-75
2023/07/06 07:35:58;;;;;;;7.50;2.65;;;20.50;99.90;;;;;;5062012;28;20020;-74
2023/07/06 07:38:24;;;;;;;5.37;2.07;;;20.60;99.90;;;;;;5051280;28;20532;-83
2023/07/06 07:40:56;;;;;;;6.78;2.28;;;20.80;99.90;;;;;;5064565;28;20130;-74
2023/07/06 07:43:26;;;;;;;4.03;2.00;;;;;;;;;;5054036;28;20021;-82
2023/07/06 07:46:05;;;;;;;6.32;2.05;;;20.90;99.90;;;;;;5058106;28;20013;-74
2023/07/06 07:48:33;;;;;;;4.78;2.47;;;21.20;99.90;;;;;;5043476;28;20037;-72
2023/07/06 07:51:02;;;;;;;3.40;2.22;;;21.20;99.90;;;;;;5051672;28;20557;-73
2023/07/06 07:53:31;;;;;;;4.22;2.10;;;21.10;99.90;;;;;;5045591;28;20027;-74
2023/07/06 07:55:57;;;;;;;3.83;1.80;;;21.10;99.90;;;;;;5040393;28;20025;-77
2023/07/06 07:58:23;;;;;;;2.97;2.00;;;21.10;99.90;;;;;;5062045;28;20072;-83
2023/07/06 08:00:55;;;;;;;3.95;1.90;;;21.20;95.10;;;;;;5054196;28;20036;-74
2023/07/06 08:03:24;;;;;;;2.28;1.70;;;21.40;95.60;;;;;;5052710;28;20437;-83
2023/07/06 08:06:03;;;;;;;4.00;1.93;;;21.50;92.80;;;;;;5058427;28;20501;-74
2023/07/06 08:08:32;;;;;;;5.75;2.13;;;21.50;90.20;;;;;;5050576;28;20056;-75
2023/07/06 08:11:02;;;;;;;3.78;2.15;;;21.60;90.50;;;;;;5057124;28;20029;-73
2023/07/06 08:13:29;;;;;;;4.07;2.20;;;21.80;90.40;;;;;;5052594;28;20484;-75
2023/07/06 08:15:55;;;;;;;5.45;2.17;;;21.90;89.60;;;;;;5058749;28;20053;-64
2023/07/06 08:18:24;;;;;;;5.20;2.13;;;22.00;89.00;;;;;;5056124;28;20764;-65
2023/07/06 08:20:54;;;;;;;4.25;2.22;;;22.10;88.40;;;;;;5053773;28;20024;-64
2023/07/06 08:23:24;;;;;;;4.05;2.17;;;22.10;88.10;;;;;;5053119;28;20028;-66
2023/07/06 08:25:51;;;;;;;7.30;2.22;;;22.20;87.90;;;;;;5058790;28;20032;-64
2023/07/06 08:28:20;;;;;;;4.25;2.20;;;22.40;86.30;;;;;;5053776;28;20061;-64
2023/07/06 08:30:45;;;;;;;7.03;1.92;;;22.50;87.20;;;;;;5050619;28;20028;-64
2023/07/06 08:33:12;;;;;;;5.30;1.85;;;22.70;85.60;;;;;;5049092;28;20025;-66
2023/07/06 08:35:45;;;;;;;2.90;1.70;;;22.70;85.30;;;;;;5060783;28;20069;-64
2023/07/06 08:38:12;;;;;;;2.90;1.90;;;22.60;85.40;;;;;;5052021;28;20470;-64
2023/07/06 08:40:40;;;;;;;4.93;2.17;;;22.70;85.00;;;;;;5062106;28;20418;-63
2023/07/06 08:43:14;;;;;;;3.55;2.00;;;22.80;85.10;;;;;;5060990;28;20017;-63
2023/07/06 08:45:44;;;;;;;5.03;2.25;;;22.90;84.50;;;;;;5056227;28;20035;-63
2023/07/06 08:48:14;;;;;;;;;;;22.90;83.80;;;;;;5053179;28;20048;-64
2023/07/06 08:50:44;;;;;;;6.22;2.17;;;22.90;83.90;;;;;;5063962;28;19904;-64
2023/07/06 08:53:14;;;;;;;4.38;2.47;;;23.00;83.80;;;;;;5063263;28;20458;-64
2023/07/06 08:55:41;;;;;;;7.15;2.28;;;23.10;83.30;;;;;;5054527;28;20052;-64
2023/07/06 08:58:21;;;;;;;4.90;2.35;;;23.30;83.30;;;;;;5069829;28;20028;-64
2023/07/06 09:00:47;;;;;;;4.47;2.05;;;23.40;82.00;;;;;;5062629;28;20016;-63
2023/07/06 09:03:13;;;;;;;7.20;2.30;;;23.40;82.30;;;;;;5061416;28;20462;-64
2023/07/06 09:05:43;;;;;;;2.90;2.10;;;23.60;81.80;;;;;;5066263;28;20024;-64
2023/07/06 09:08:13;;;;;;;7.75;2.50;;;23.70;80.80;;;;;;5054598;28;20020;-64
2023/07/06 09:10:38;;;;;;;4.60;2.10;;;23.80;80.60;;;;;;5059289;28;20044;-64
2023/07/06 09:13:24;;;;;;;5.50;2.70;;;23.90;79.70;;;;;;5057321;28;20025;-64
2023/07/06 09:15:56;;;;;;;6.28;2.63;;;24.00;80.10;;;;;;5060604;28;20024;-64
2023/07/06 09:18:22;;;;;;;5.53;2.47;;;24.10;79.00;;;;;;5062833;28;20024;-66
2023/07/06 09:20:49;;;;;;;4.63;2.85;;;24.00;79.10;;;;;;5052273;28;20049;-64
2023/07/06 09:23:16;;;;;;;2.90;2.35;;;23.70;79.40;;;;;;5055704;28;20473;-64
2023/07/06 09:25:45;;;;;;;4.78;2.40;;;23.40;79.40;;;;;;5064772;28;20025;-64
2023/07/06 09:28:16;;;;;;;4.53;2.20;;;23.10;80.10;;;;;;5058784;28;20067;-64
2023/07/06 09:30:42;;;;;;;3.58;2.63;;;22.90;80.80;;;;;;5054672;28;20031;-64
2023/07/06 09:33:24;;;;;;;5.25;2.22;;;23.00;80.50;;;;;;5066987;28;20092;-64
2023/07/06 09:35:53;;;;;;;5.75;2.58;;;23.20;79.60;;;;;;5065113;28;20035;-64
2023/07/06 09:38:19;;;;;;;8.73;2.33;;;23.30;79.90;;;;;;5056207;28;20044;-66
2023/07/06 09:40:46;;;;;;;16.98;3.05;;;23.60;79.90;;;;;;5058449;28;20033;-64
2023/07/06 09:43:24;;;;;;;8.70;2.45;;;24.00;80.30;;;;;;5056986;28;20100;-64
2023/07/06 09:45:51;;;;;;;3.63;2.63;;;24.50;78.00;;;;;;5066565;28;20461;-64
2023/07/06 09:48:37;;;;;;;4.00;2.30;;;25.10;76.90;;;;;;5060904;28;20122;-64
2023/07/06 09:51:11;;;;;;;6.57;2.33;;;25.40;74.70;;;;;;5068010;28;20047;-65
2023/07/06 09:53:53;;;;;;;3.50;2.30;;;25.50;74.20;;;;;;5058698;28;20021;-64
2023/07/06 09:56:19;;;;;;;4.72;2.65;;;25.50;73.80;;;;;;5061106;28;20155;-66
2023/07/06 09:58:50;;;;;;;16.13;2.83;;;25.30;74.10;;;;;;5056759;28;20087;-64
2023/07/06 10:01:31;;;;;;;19.63;3.30;;;25.10;74.00;;;;;;5057097;28;20025;-64
2023/07/06 10:04:14;;;;;;;10.90;2.40;;;24.90;73.60;;;;;;5067811;28;20445;-64
2023/07/06 10:07:01;;;;;;;3.67;2.35;;;24.70;73.80;;;;;;5060025;28;20013;-64
2023/07/06 10:09:42;;;;;;;4.32;2.38;;;24.60;73.50;;;;;;5053125;28;20082;-64
2023/07/06 10:12:33;;;;;;;12.27;2.78;;;24.30;74.10;;;;;;5069149;28;20040;-64
2023/07/06 10:15:05;;;;;;;3.83;2.28;;;24.10;74.80;;;;;;5058235;28;20017;-64
2023/07/06 10:17:40;;;;;;;8.48;2.75;;;24.00;75.30;;;;;;5049536;28;20070;-64
2023/07/06 10:20:17;;;;;;;5.63;2.88;;;24.30;74.40;;;;;;5061212;28;20025;-64
2023/07/06 10:23:10;;;;;;;8.82;2.65;;;24.40;73.80;;;;;;5059621;28;20064;-64
2023/07/06 10:25:54;;;;;;;3.42;2.35;;;24.70;73.60;;;;;;5049438;28;20021;-64
2023/07/06 10:28:28;;;;;;;6.90;2.95;;;24.90;72.80;;;;;;5063093;28;20042;-67
2023/07/06 10:30:57;;;;;;;4.70;2.78;;;25.20;72.90;;;;;;5060920;28;20049;-63
2023/07/06 10:33:44;;;;;;;5.28;2.75;;;25.50;71.80;;;;;;5058882;28;20059;-65
2023/07/06 10:36:12;;;;;;;5.68;2.33;;;25.70;71.40;;;;;;5062106;28;20050;-63
2023/07/06 10:38:37;;;;;;;5.45;2.13;;;26.00;71.20;;;;;;5062344;28;20029;-63
2023/07/06 10:41:29;;;;;;;6.43;2.47;;;26.10;70.50;;;;;;5065564;28;20032;-64
2023/07/06 10:43:59;;;;;;;4.07;2.70;;;;;;;;;;5060851;28;20024;-63
2023/07/06 10:46:36;;;;;;;3.25;2.22;;;26.60;69.00;;;;;;5054340;28;20017;-63
2023/07/06 10:49:53;;;;;;;3.80;2.65;;;26.80;68.90;;;;;;5051202;28;20124;-64
2023/07/06 10:52:36;;;;;;;6.07;2.63;;;27.20;67.90;;;;;;5036288;28;20064;-65
2023/07/06 10:55:09;;;;;;;7.78;3.00;;;27.50;66.50;;;;;;5056024;28;20373;-64
2023/07/06 10:57:36;;;;;;;5.38;2.55;;;27.40;67.60;;;;;;5056054;28;20016;-64
2023/07/06 11:00:16;;;;;;;6.30;2.80;;;27.50;67.20;;;;;;5065786;28;20040;-64
2023/07/06 11:02:44;;;;;;;3.85;2.38;;;27.50;66.30;;;;;;5052740;28;20592;-64
2023/07/06 11:05:16;;;;;;;7.03;2.90;;;27.50;66.70;;;;;;5053772;28;20039;-64
2023/07/06 11:07:50;;;;;;;4.80;2.58;;;27.50;65.90;;;;;;5058878;28;20028;-64
2023/07/06 11:10:21;;;;;;;7.28;3.00;;;27.20;65.90;;;;;;5052699;28;20122;-63
2023/07/06 11:13:01;;;;;;;3.92;2.53;;;26.80;66.20;;;;;;5053233;28;20428;-64
2023/07/06 11:15:39;;;;;;;5.38;2.60;;;26.70;67.20;;;;;;5053016;28;20155;-64
2023/07/06 11:18:17;;;;;;;5.05;3.03;;;26.50;66.70;;;;;;5062155;28;20027;-66
2023/07/06 11:20:47;;;;;;;6.88;2.40;;;26.30;67.10;;;;;;5053182;28;20465;-65
2023/07/06 11:23:17;;;;;;;5.07;2.60;;;26.00;66.90;;;;;;5053146;28;20453;-65
2023/07/06 11:25:47;;;;;;;3.67;2.08;;;25.60;67.90;;;;;;5056246;28;20025;-64
2023/07/06 11:28:14;;;;;;;3.83;2.17;;;25.30;68.30;;;;;;5055786;28;20094;-65
2023/07/06 11:31:17;;;;;;;4.90;2.55;;;25.00;69.10;;;;;;5051317;28;20208;-65
2023/07/06 11:33:55;;;;;;;4.35;2.28;;;24.80;69.60;;;;;;5021658;28;20057;-64
2023/07/06 11:36:41;;;;;;;2.92;2.45;;;24.70;70.00;;;;;;5056153;28;20067;-67
2023/07/06 11:39:57;;;;;;;3.58;2.63;;;24.80;69.00;;;;;;5053202;28;20094;-65
2023/07/06 11:43:12;;;;;;;6.60;2.70;;;25.40;68.10;;;;;;5003642;28;20029;-67
2023/07/06 11:45:47;;;;;;;6.57;2.50;;;26.10;67.50;;;;;;4981788;28;20118;-63
2023/07/06 11:48:50;;;;;;;4.43;2.70;;;26.80;66.10;;;;;;4997293;28;20122;-63
2023/07/06 11:51:19;;;;;;;2.65;2.20;;;27.50;65.20;;;;;;4991663;28;20046;-64
2023/07/06 11:56:32;;;;;;;4.68;2.97;;;28.20;65.20;;;;;;4987709;28;20455;-63
2023/07/06 11:59:03;;;;;;;5.55;2.70;;;28.60;63.80;;;;;;4997895;28;20476;-63
2023/07/06 12:01:41;;;;;;;6.28;2.53;;;28.30;62.80;;;;;;4983442;28;20018;-65
2023/07/06 12:04:20;;;;;;;4.38;2.80;;;27.80;64.10;;;;;;4992469;28;20073;-65
2023/07/06 12:06:48;;;;;;;4.50;2.65;;;27.60;64.00;;;;;;4988738;28;20109;-66
2023/07/06 12:09:23;;;;;;;8.77;3.05;;;27.60;64.30;;;;;;5000734;28;20383;-63
2023/07/06 12:12:12;;;;;;;2.90;2.40;;;27.70;63.60;;;;;;4995028;28;20511;-64
2023/07/06 12:14:37;;;;;;;5.25;2.80;;;27.60;64.40;;;;;;5042985;28;20025;-64
2023/07/06 12:17:06;;;;;;;4.20;2.00;;;27.70;65.10;;;;;;5062698;28;20048;-64
2023/07/06 12:19:31;;;;;;;4.53;2.80;;;27.80;64.70;;;;;;5061467;28;20019;-64
2023/07/06 12:21:58;;;;;;;4.88;2.70;;;28.00;63.60;;;;;;5055901;28;20021;-64
2023/07/06 12:24:26;;;;;;;9.38;3.03;;;28.00;62.60;;;;;;5065187;28;20094;-64
2023/07/06 12:26:56;;;;;;;4.85;2.33;;;28.10;63.10;;;;;;5064428;28;20032;-64
2023/07/06 12:29:26;;;;;;;4.57;2.28;;;27.90;62.30;;;;;;5062555;28;20782;-66
2023/07/06 12:31:54;;;;;;;6.70;2.35;;;27.90;63.00;;;;;;5054344;28;20029;-64
2023/07/06 12:34:32;;;;;;;4.43;2.20;;;27.90;63.50;;;;;;5070266;28;20455;-65
2023/07/06 12:37:00;;;;;;;2.78;2.40;;;28.20;64.00;;;;;;5061990;28;20516;-63
2023/07/06 12:39:27;;;;;;;3.08;2.35;;;28.50;62.70;;;;;;5052319;28;20495;-64
2023/07/06 12:41:54;;;;;;;6.90;2.60;;;28.90;63.20;;;;;;5070927;28;20021;-64
2023/07/06 12:44:24;;;;;;;7.25;2.22;;;29.10;61.00;;;;;;5062984;28;20096;-66
2023/07/06 12:46:52;;;;;;;7.85;3.17;;;29.10;61.90;;;;;;5057579;28;20040;-64
2023/07/06 12:49:23;;;;;;;4.38;2.45;;;29.30;60.90;;;;;;5055886;28;20178;-64
2023/07/06 12:51:56;;;;;;;7.30;2.78;;;29.40;60.70;;;;;;5069016;28;20404;-64
2023/07/06 12:54:29;;;;;;;8.20;2.90;;;29.60;60.00;;;;;;5055188;28;20036;-66
2023/07/06 12:57:00;;;;;;;11.63;3.33;;;29.70;59.80;;;;;;5055980;28;20545;-64
2023/07/06 12:59:34;;;;;;;11.27;2.80;;;29.80;59.80;;;;;;5044338;28;20103;-64
2023/07/06 13:02:15;;;;;;;5.95;2.28;;;29.90;59.70;;;;;;5063872;28;20102;-64
2023/07/06 13:04:43;;;;;;;17.60;3.08;;;29.90;59.40;;;;;;5056132;28;20029;-64
2023/07/06 13:07:09;;;;;;;4.07;2.70;;;29.90;59.70;;;;;;5050475;28;20359;-64
2023/07/06 13:09:34;;;;;;;10.23;2.75;;;29.80;60.00;;;;;;5053739;28;20115;-64
2023/07/06 13:12:08;;;;;;;4.82;2.22;;;29.90;59.90;;;;;;5057535;28;20036;-64
2023/07/06 13:14:38;;;;;;;3.65;2.40;;;30.00;60.00;;;;;;5053392;28;20029;-64
2023/07/06 13:17:08;;;;;;;7.28;2.80;;;30.20;60.10;;;;;;5065795;28;20049;-64